Camano Island, Washington
Current Conditions -  °F | °C
As of 3:56 AM on Thursday 18 Dec 2014 (Local Time) from KNUW Reporting Station
Overcast Overcast  
Wind Chill: 44°   Ceiling: 700
Heat Index: 48°   Visibility: 7mi
Dew Point: 43°   Wind: 8mph
Humidity: 83%   Direction: 120°ESE
Pressure: 29.92"   Gusts: NA
Location:  48.16°N, 122.49°W
Report Text: KNUW 181156Z 12007KT 7SM BKN007 OVC020 09/06 A2992 RMK AO2 RAE25 SLP136 P0000 60004 70006 T00890061 10089 20078 50002 VISNO E $
Loading
Personal Weather Stations






























Interactive Weather Map New forecast layout! Learn more

10-Day Weather Forecast

Advertisements
Track Severe Weather on mobile